.
WxDataArchive / Data Records for 2006-12-04
2006-12-03 December 2006 2006-12-05

Data Records for Monday, 04 December 2006

Time	Temp	Chill	HIndex	Humid	Dewpt	 Wind 	HiWind	WindDir	Rain 	Barom 
-----	----	-----	------	-----	-----	------	------	-------	-----	----- 
00:00	15.9	15.9	15.9	73	8.8	1	4	270	0.00	30.457 
00:05	15.9	15.9	15.9	73	8.8	2	6	248	0.00	30.457 
00:10	15.9	15.9	15.9	73	8.8	3	10	270	0.00	30.457 
00:15	15.9	15.9	15.9	73	8.8	2	9	248	0.00	30.448 
00:20	15.9	15.9	15.9	73	8.8	3	10	248	0.00	30.448 
00:25	15.9	15.9	15.9	73	8.8	1	6	270	0.00	30.448 
00:30	15.9	15.9	15.9	73	8.8	2	7	248	0.00	30.446 
00:35	15.9	15.9	15.9	73	8.8	2	6	270	0.00	30.446 
00:40	16.1	16.1	16.1	73	9.0	2	11	270	0.00	30.446 
00:45	16.1	16.1	16.1	73	9.0	2	7	248	0.00	30.448 
00:50	16.1	16.1	16.1	73	9.0	1	5	270	0.00	30.448 
00:55	16.2	16.2	16.2	73	9.1	1	6	270	0.00	30.448 
01:00	16.2	16.2	16.2	73	9.1	1	5	248	0.00	30.450 
01:05	16.4	16.4	16.4	73	9.3	1	5	270	0.00	30.450 
01:10	16.4	16.4	16.4	73	9.3	2	5	270	0.00	30.450 
01:15	16.4	16.4	16.4	73	9.3	1	5	270	0.00	30.446 
01:20	16.4	16.4	16.4	73	9.3	2	12	270	0.00	30.446 
01:25	16.4	10.1	16.4	73	9.3	4	13	248	0.00	30.446 
01:30	16.2	16.2	16.2	73	9.1	3	12	270	0.00	30.435 
01:35	16.1	9.7	16.1	73	9.0	4	11	270	0.00	30.435 
01:40	15.9	9.5	15.9	73	8.8	4	10	270	0.00	30.435 
01:45	15.9	15.9	15.9	73	8.8	3	12	270	0.00	30.430 
01:50	15.7	15.7	15.7	74	8.9	2	7	248	0.00	30.430 
01:55	15.6	15.6	15.6	74	8.8	3	9	248	0.00	30.430 
02:00	15.6	15.6	15.6	74	8.8	3	7	270	0.00	30.429 
02:05	15.6	9.1	15.6	74	8.8	4	15	270	0.00	30.429 
02:10	15.6	15.6	15.6	74	8.8	3	10	270	0.00	30.429 
02:15	15.6	15.6	15.6	74	8.8	1	4	248	0.00	30.429 
02:20	15.4	15.4	15.4	75	8.9	2	6	270	0.00	30.429 
02:25	15.4	15.4	15.4	75	8.9	2	6	270	0.00	30.429 
02:30	15.4	15.4	15.4	75	8.9	1	6	248	0.00	30.428 
02:35	15.4	15.4	15.4	75	8.9	2	5	248	0.00	30.428 
02:40	15.2	15.2	15.2	75	8.7	2	12	248	0.00	30.428 
02:45	15.2	15.2	15.2	75	8.7	1	4	270	0.00	30.432 
02:50	15.2	15.2	15.2	76	9.0	1	6	248	0.00	30.432 
02:55	15.2	15.2	15.2	76	9.0	2	10	248	0.00	30.432 
03:00	15.1	15.1	15.1	76	8.9	1	6	248	0.00	30.437 
03:05	15.1	15.1	15.1	75	8.6	1	4	248	0.00	30.437 
03:10	15.1	15.1	15.1	75	8.6	1	4	248	0.00	30.437 
03:15	15.1	15.1	15.1	75	8.6	3	10	248	0.00	30.438 
03:20	15.1	15.1	15.1	75	8.6	1	4	248	0.00	30.438 
03:25	15.1	15.1	15.1	75	8.6	1	5	248	0.00	30.438 
03:30	15.1	15.1	15.1	75	8.6	2	7	270	0.00	30.440 
03:35	15.1	15.1	15.1	75	8.6	1	4	248	0.00	30.440 
03:40	14.9	14.9	14.9	75	8.4	2	9	270	0.00	30.440 
03:45	15.1	15.1	15.1	75	8.6	2	9	270	0.00	30.437 
03:50	15.1	15.1	15.1	74	8.3	2	7	270	0.00	30.437 
03:55	14.9	14.9	14.9	74	8.1	2	7	270	0.00	30.437 
04:00	14.9	14.9	14.9	74	8.1	2	6	248	0.00	30.432 
04:05	14.9	14.9	14.9	74	8.1	2	7	248	0.00	30.432 
04:10	14.9	14.9	14.9	74	8.1	1	9	270	0.00	30.432 
04:15	14.9	14.9	14.9	74	8.1	2	9	248	0.00	30.434 
04:20	14.9	14.9	14.9	74	8.1	3	10	270	0.00	30.434 
04:25	14.9	14.9	14.9	73	7.8	3	9	270	0.00	30.434 
04:30	14.8	14.8	14.8	73	7.7	2	6	270	0.00	30.430 
04:35	14.8	14.8	14.8	73	7.7	1	10	248	0.00	30.430 
04:40	14.8	14.8	14.8	73	7.7	3	11	270	0.00	30.430 
04:45	14.6	14.6	14.6	73	7.5	2	9	248	0.00	30.430 
04:50	14.6	14.6	14.6	73	7.5	3	16	270	0.00	30.430 
04:55	14.6	14.6	14.6	73	7.5	3	16	248	0.00	30.430 
05:00	14.6	14.6	14.6	73	7.5	3	9	248	0.00	30.418 
05:05	14.4	14.4	14.4	73	7.4	3	11	248	0.00	30.418 
05:10	14.4	14.4	14.4	74	7.7	2	6	248	0.00	30.418 
05:15	14.4	14.4	14.4	74	7.7	2	7	270	0.00	30.420 
05:20	14.3	14.3	14.3	74	7.6	2	6	248	0.00	30.420 
05:25	14.3	14.3	14.3	74	7.6	2	7	248	0.00	30.420 
05:30	14.1	14.1	14.1	74	7.4	2	6	248	0.00	30.414 
05:35	14.1	14.1	14.1	75	7.7	2	7	248	0.00	30.414 
05:40	14.1	14.1	14.1	75	7.7	2	9	270	0.00	30.414 
05:45	14.1	14.1	14.1	75	7.7	2	9	248	0.00	30.415 
05:50	14.1	14.1	14.1	75	7.7	3	7	270	0.00	30.415 
05:55	14.1	14.1	14.1	75	7.7	2	7	248	0.00	30.415 
06:00	14.0	14.0	14.0	75	7.6	2	7	248	0.00	30.414 
06:05	14.0	14.0	14.0	75	7.6	2	7	248	0.00	30.414 
06:10	14.0	14.0	14.0	75	7.6	2	9	270	0.00	30.414 
06:15	14.0	14.0	14.0	75	7.6	2	9	248	0.00	30.409 
06:20	13.8	13.8	13.8	75	7.4	1	9	248	0.00	30.409 
06:25	13.8	13.8	13.8	75	7.4	2	6	270	0.00	30.409 
06:30	13.8	13.8	13.8	75	7.4	2	4	248	0.00	30.411 
06:35	13.8	13.8	13.8	76	7.7	3	9	248	0.00	30.411 
06:40	13.8	13.8	13.8	76	7.7	2	6	270	0.00	30.411 
06:45	13.8	13.8	13.8	76	7.7	2	7	270	0.00	30.418 
06:50	13.8	13.8	13.8	76	7.7	2	6	248	0.00	30.418 
06:55	13.8	13.8	13.8	77	7.9	3	11	248	0.00	30.418 
07:00	13.8	13.8	13.8	77	7.9	2	7	248	0.00	30.415 
07:05	13.6	13.6	13.6	76	7.5	2	6	248	0.00	30.415 
07:10	13.6	13.6	13.6	76	7.5	2	7	248	0.00	30.415 
07:15	13.8	13.8	13.8	75	7.4	2	7	248	0.00	30.425 
07:20	13.8	13.8	13.8	75	7.4	3	13	248	0.00	30.425 
07:25	13.8	13.8	13.8	74	7.1	2	9	248	0.00	30.425 
07:30	13.8	13.8	13.8	74	7.1	2	7	270	0.00	30.421 
07:35	13.8	13.8	13.8	74	7.1	2	6	270	0.00	30.421 
07:40	13.6	13.6	13.6	74	6.9	3	10	270	0.00	30.421 
07:45	13.8	13.8	13.8	74	7.1	3	7	270	0.00	30.413 
07:50	13.8	13.8	13.8	75	7.4	3	9	248	0.00	30.413 
07:55	13.6	13.6	13.6	75	7.2	2	7	248	0.00	30.413 
08:00	13.6	13.6	13.6	75	7.2	2	7	270	0.00	30.407 
08:05	13.6	13.6	13.6	75	7.2	1	6	248	0.00	30.407 
08:10	13.6	13.6	13.6	75	7.2	1	6	248	0.00	30.407 
08:15	13.6	13.6	13.6	76	7.5	1	7	248	0.00	30.395 
08:20	13.6	13.6	13.6	76	7.5	2	6	248	0.00	30.395 
08:25	13.8	13.8	13.8	76	7.7	1	5	270	0.00	30.395 
08:30	13.8	13.8	13.8	75	7.4	2	9	270	0.00	30.392 
08:35	14.0	14.0	14.0	75	7.6	2	7	248	0.00	30.392 
08:40	14.1	14.1	14.1	75	7.7	1	5	270	0.00	30.392 
08:45	14.3	14.3	14.3	74	7.6	2	7	270	0.00	30.393 
08:50	14.4	14.4	14.4	74	7.7	2	7	248	0.00	30.393 
08:55	14.4	14.4	14.4	74	7.7	2	7	270	0.00	30.393 
09:00	14.6	14.6	14.6	74	7.8	2	7	248	0.00	30.392 
09:05	14.8	14.8	14.8	73	7.7	3	10	248	0.00	30.392 
09:10	14.9	14.9	14.9	73	7.8	2	6	270	0.00	30.392 
09:15	14.9	14.9	14.9	73	7.8	2	8	248	0.00	30.393 
09:20	15.1	15.1	15.1	73	8.0	2	6	248	0.00	30.393 
09:25	15.2	15.2	15.2	73	8.1	2	10	248	0.00	30.393 
09:30	15.4	15.4	15.4	73	8.3	1	4	248	0.00	30.389 
09:35	15.6	15.6	15.6	72	8.2	1	5	248	0.00	30.389 
09:40	15.6	15.6	15.6	72	8.2	3	10	270	0.00	30.389 
09:45	15.7	15.7	15.7	72	8.3	1	5	248	0.00	30.385 
09:50	15.9	15.9	15.9	71	8.2	2	6	248	0.00	30.385 
09:55	16.2	16.2	16.2	71	8.5	2	9	248	0.00	30.385 
10:00	16.4	16.4	16.4	71	8.7	3	9	248	0.00	30.379 
10:05	16.5	16.5	16.5	70	8.5	3	12	248	0.00	30.379 
10:10	16.7	16.7	16.7	71	9.0	2	6	248	0.00	30.379 
10:15	16.7	16.7	16.7	69	8.3	3	11	270	0.00	30.372 
10:20	16.7	16.7	16.7	68	8.0	3	10	248	0.00	30.372 
10:25	16.9	10.6	16.9	68	8.2	4	10	248	0.00	30.372 
10:30	17.3	17.3	17.3	69	8.9	2	6	270	0.00	30.375 
10:35	17.5	17.5	17.5	67	8.4	3	13	248	0.00	30.375 
10:40	17.3	11.1	17.3	66	7.9	4	12	248	0.00	30.375 
10:45	17.5	11.3	17.5	66	8.1	4	10	270	0.00	30.370 
10:50	17.5	11.3	17.5	66	8.1	4	13	248	0.00	30.370 
10:55	17.8	17.8	17.8	66	8.4	3	10	248	0.00	30.370 
11:00	18.0	18.0	18.0	67	8.9	2	7	248	0.00	30.358 
11:05	18.1	18.1	18.1	67	9.0	2	6	270	0.00	30.358 
11:10	18.3	18.3	18.3	66	8.9	2	8	248	0.00	30.358 
11:15	18.0	10.6	18.0	66	8.6	5	11	248	0.00	30.344 
11:20	17.8	17.8	17.8	67	8.7	3	10	248	0.00	30.344 
11:25	18.0	11.9	18.0	67	8.9	4	11	248	0.00	30.344 
11:30	18.4	18.4	18.4	65	8.6	3	10	248	0.00	30.327 
11:35	18.8	18.8	18.8	66	9.4	3	9	248	0.00	30.327 
11:40	19.1	19.1	19.1	65	9.3	3	9	248	0.00	30.327 
11:45	19.4	19.4	19.4	65	9.6	2	6	248	0.00	30.321 
11:50	19.7	19.7	19.7	65	9.9	3	9	270	0.00	30.321 
11:55	19.4	12.3	19.4	64	9.2	5	12	248	0.00	30.321 
12:00	19.5	19.5	19.5	64	9.3	3	13	248	0.00	30.309 
12:05	19.5	19.5	19.5	65	9.7	3	11	248	0.00	30.309 
12:10	19.7	19.7	19.7	65	9.9	3	12	270	0.00	30.309 
12:15	19.7	19.7	19.7	64	9.5	3	8	270	0.00	30.293 
12:20	19.9	19.9	19.9	64	9.7	3	11	270	0.00	30.293 
12:25	19.9	19.9	19.9	64	9.7	3	9	270	0.00	30.293 
12:30	19.9	14.1	19.9	63	9.4	4	9	248	0.00	30.276 
12:35	20.0	20.0	20.0	64	9.8	3	10	248	0.00	30.276 
12:40	20.0	14.2	20.0	63	9.5	4	10	248	0.00	30.276 
12:45	20.2	14.4	20.2	63	9.7	4	12	270	0.00	30.269 
12:50	20.2	20.2	20.2	63	9.7	3	10	248	0.00	30.269 
12:55	20.3	14.6	20.3	63	9.7	4	11	270	0.00	30.269 
13:00	20.5	20.5	20.5	64	10.3	3	12	270	0.00	30.260 
13:05	20.5	14.8	20.5	62	9.6	4	9	270	0.00	30.260 
13:10	20.6	13.7	20.6	60	8.9	5	14	248	0.00	30.260 
13:15	20.8	13.9	20.8	60	9.1	5	13	248	0.00	30.246 
13:20	20.8	15.1	20.8	61	9.5	4	12	248	0.00	30.246 
13:25	20.8	15.1	20.8	61	9.5	4	17	248	0.00	30.246 
13:30	21.0	21.0	21.0	61	9.7	3	7	248	0.00	30.231 
13:35	21.1	21.1	21.1	62	10.1	2	13	248	0.00	30.231 
13:40	21.1	21.1	21.1	63	10.5	3	10	248	0.00	30.231 
13:45	21.1	15.5	21.1	63	10.5	4	15	270	0.00	30.204 
13:50	21.4	21.4	21.4	65	11.5	2	7	248	0.00	30.204 
13:55	21.4	15.8	21.4	65	11.5	4	14	270	0.00	30.204 
14:00	21.6	21.6	21.6	65	11.7	3	11	248	0.00	30.191 
14:05	21.8	16.3	21.8	63	11.2	4	10	248	0.00	30.191 
14:10	21.9	16.4	21.9	64	11.6	4	10	270	0.00	30.191 
14:15	22.1	15.4	22.1	63	11.5	5	12	248	0.00	30.198 
14:20	22.2	14.6	22.2	62	11.2	6	14	270	0.00	30.198 
14:25	22.4	17.0	22.4	63	11.7	4	13	270	0.00	30.198 
14:30	22.7	22.7	22.7	63	12.0	3	10	248	0.00	30.194 
14:35	22.7	17.3	22.7	62	11.7	4	10	248	0.00	30.194 
14:40	22.9	16.4	22.9	61	11.5	5	13	248	0.00	30.194 
14:45	22.9	15.4	22.9	61	11.5	6	12	248	0.00	30.165 
14:50	23.0	16.5	23.0	61	11.6	5	14	248	0.00	30.165 
14:55	23.3	23.3	23.3	61	11.9	3	10	270	0.00	30.165 
15:00	23.3	15.9	23.3	60	11.5	6	15	270	0.00	30.159 
15:05	23.5	16.1	23.5	60	11.7	6	13	270	0.00	30.159 
15:10	23.5	17.1	23.5	60	11.7	5	12	248	0.00	30.159 
15:15	23.5	17.1	23.5	60	11.7	5	11	270	0.00	30.161 
15:20	23.6	17.2	23.6	60	11.8	5	15	270	0.00	30.161 
15:25	23.8	18.6	23.8	61	12.3	4	12	248	0.00	30.161 
15:30	23.9	18.7	23.9	61	12.4	4	13	248	0.00	30.162 
15:35	23.9	17.6	23.9	61	12.4	5	13	248	0.00	30.162 
15:40	24.1	17.8	24.1	61	12.6	5	14	270	0.00	30.162 
15:45	24.2	19.1	24.2	61	12.7	4	11	270	0.00	30.159 
15:50	24.4	18.1	24.4	61	12.9	5	15	270	0.00	30.159 
15:55	24.5	19.4	24.5	61	13.0	4	11	270	0.00	30.159 
16:00	24.7	18.5	24.7	61	13.2	5	15	248	0.00	30.150 
16:05	24.8	19.8	24.8	62	13.7	4	10	248	0.00	30.150 
16:10	24.8	19.8	24.8	62	13.7	4	11	270	0.00	30.150 
16:15	25.0	18.9	25.0	62	13.8	5	11	248	0.00	30.148 
16:20	25.1	19.0	25.1	62	13.9	5	14	270	0.00	30.148 
16:25	25.3	19.2	25.3	62	14.1	5	17	270	0.00	30.148 
16:30	25.4	25.4	25.4	62	14.2	3	10	248	0.00	30.148 
16:35	25.4	25.4	25.4	62	14.2	3	10	248	0.00	30.148 
16:40	25.4	25.4	25.4	62	14.2	3	9	248	0.00	30.148 
16:45	25.6	25.6	25.6	62	14.4	3	9	248	0.00	30.148 
16:50	25.6	25.6	25.6	62	14.4	3	12	248	0.00	30.148 
16:55	25.7	25.7	25.7	63	14.9	3	10	248	0.00	30.148 
17:00	25.7	25.7	25.7	63	14.9	3	9	270	0.00	30.147 
17:05	25.8	25.8	25.8	63	15.0	3	10	248	0.00	30.147 
17:10	26.0	20.0	26.0	63	15.2	5	17	248	0.00	30.147 
17:15	26.0	21.1	26.0	64	15.5	4	11	248	0.00	30.148 
17:20	26.1	20.1	26.1	64	15.6	5	12	270	0.00	30.148 
17:25	26.1	21.3	26.1	65	16.0	4	11	248	0.00	30.148 
17:30	26.0	20.0	26.0	65	15.9	5	13	270	0.00	30.146 
17:35	26.1	19.2	26.1	65	16.0	6	15	248	0.00	30.146 
17:40	26.0	21.1	26.0	65	15.9	4	11	270	0.00	30.146 
17:45	26.1	20.1	26.1	66	16.3	5	15	248	0.00	30.147 
17:50	26.0	26.0	26.0	66	16.2	3	15	270	0.00	30.147 
17:55	26.1	20.1	26.1	67	16.7	5	15	270	0.00	30.147 
18:00	26.3	26.3	26.3	67	16.9	3	7	270	0.00	30.154 
18:05	26.4	21.6	26.4	67	17.0	4	14	248	0.00	30.154 
18:10	26.6	21.8	26.6	67	17.1	4	11	270	0.00	30.154 
18:15	26.7	22.0	26.7	67	17.2	4	11	270	0.00	30.155 
18:20	26.7	22.0	26.7	67	17.2	4	13	270	0.00	30.155 
18:25	26.9	26.9	26.9	67	17.4	3	12	248	0.00	30.155 
18:30	26.7	22.0	26.7	68	17.6	4	11	270	0.00	30.158 
18:35	26.7	26.7	26.7	68	17.6	3	9	270	0.00	30.158 
18:40	26.6	20.7	26.6	68	17.5	5	12	248	0.00	30.158 
18:45	26.6	20.7	26.6	68	17.5	5	12	270	0.00	30.162 
18:50	26.4	26.4	26.4	69	17.6	3	9	270	0.00	30.162 
18:55	26.3	26.3	26.3	69	17.5	2	6	270	0.00	30.162 
19:00	26.3	21.5	26.3	69	17.5	4	10	270	0.00	30.165 
19:05	26.1	26.1	26.1	69	17.3	2	7	270	0.00	30.165 
19:10	26.1	26.1	26.1	69	17.3	2	10	248	0.00	30.165 
19:15	26.1	21.3	26.1	69	17.3	4	14	270	0.00	30.171 
19:20	26.1	26.1	26.1	69	17.3	3	12	270	0.00	30.171 
19:25	26.1	26.1	26.1	70	17.7	3	9	248	0.00	30.171 
19:30	26.0	26.0	26.0	70	17.6	3	9	248	0.00	30.173 
19:35	25.8	25.8	25.8	70	17.4	3	10	270	0.00	30.173 
19:40	25.8	25.8	25.8	70	17.4	2	6	270	0.00	30.173 
19:45	25.7	25.7	25.7	71	17.6	3	9	270	0.00	30.172 
19:50	25.8	25.8	25.8	71	17.7	3	9	270	0.00	30.172 
19:55	25.8	20.9	25.8	71	17.7	4	12	270	0.00	30.172 
20:00	26.0	26.0	26.0	71	17.9	3	11	270	0.00	30.174 
20:05	26.0	21.1	26.0	70	17.6	4	10	248	0.00	30.174 
20:10	26.1	26.1	26.1	70	17.7	3	10	270	0.00	30.174 
20:15	26.1	26.1	26.1	70	17.7	2	6	248	0.00	30.174 
20:20	26.1	26.1	26.1	70	17.7	3	7	270	0.00	30.174 
20:25	26.1	26.1	26.1	70	17.7	3	11	248	0.00	30.174 
20:30	26.1	26.1	26.1	70	17.7	3	7	270	0.00	30.166 
20:35	26.3	21.5	26.3	70	17.9	4	9	270	0.00	30.166 
20:40	26.3	21.5	26.3	70	17.9	4	16	270	0.00	30.166 
20:45	26.3	26.3	26.3	71	18.2	3	7	270	0.00	30.167 
20:50	26.4	21.6	26.4	71	18.3	4	11	270	0.00	30.167 
20:55	26.4	21.6	26.4	71	18.3	4	12	248	0.00	30.167 
21:00	26.4	26.4	26.4	71	18.3	3	12	270	0.00	30.164 
21:05	26.4	26.4	26.4	72	18.6	3	10	248	0.00	30.164 
21:10	26.4	21.6	26.4	71	18.3	4	14	270	0.00	30.164 
21:15	26.6	26.6	26.6	71	18.5	3	11	270	0.00	30.160 
21:20	26.6	26.6	26.6	72	18.8	3	8	248	0.00	30.160 
21:25	26.6	26.6	26.6	72	18.8	3	10	248	0.00	30.160 
21:30	26.7	26.7	26.7	71	18.6	3	7	248	0.00	30.159 
21:35	26.7	26.7	26.7	71	18.6	2	7	248	0.00	30.159 
21:40	26.9	22.2	26.9	71	18.8	4	10	270	0.00	30.159 
21:45	26.9	26.9	26.9	71	18.8	3	9	270	0.00	30.158 
21:50	26.9	26.9	26.9	71	18.8	3	7	270	0.00	30.158 
21:55	26.9	22.2	26.9	71	18.8	4	11	270	0.00	30.158 
22:00	27.0	22.3	27.0	71	18.9	4	12	270	0.00	30.160 
22:05	27.0	27.0	27.0	71	18.9	3	11	270	0.00	30.160 
22:10	26.9	26.9	26.9	72	19.1	3	11	248	0.00	30.160 
22:15	26.9	26.9	26.9	72	19.1	3	9	270	0.00	30.156 
22:20	26.7	22.0	26.7	72	18.9	4	11	270	0.00	30.156 
22:25	26.7	26.7	26.7	72	18.9	3	10	248	0.00	30.156 
22:30	26.6	20.7	26.6	72	18.8	5	17	270	0.00	30.156 
22:35	26.6	21.8	26.6	73	19.1	4	11	270	0.00	30.156 
22:40	26.4	20.5	26.4	73	18.9	5	12	270	0.00	30.156 
22:45	26.3	26.3	26.3	73	18.8	3	10	248	0.00	30.154 
22:50	26.3	26.3	26.3	73	18.8	3	9	248	0.00	30.154 
22:55	26.1	26.1	26.1	74	19.0	2	9	248	0.00	30.154 
23:00	26.0	26.0	26.0	74	18.9	2	6	248	0.00	30.155 
23:05	25.8	25.8	25.8	74	18.7	2	10	248	0.00	30.155 
23:10	25.8	25.8	25.8	75	19.0	2	7	248	0.00	30.155 
23:15	25.8	25.8	25.8	75	19.0	3	11	270	0.00	30.151 
23:20	25.8	25.8	25.8	75	19.0	2	9	270	0.00	30.151 
23:25	25.7	25.7	25.7	75	18.9	2	8	270	0.00	30.151 
23:30	25.7	25.7	25.7	75	18.9	3	7	270	0.00	30.155 
23:35	25.6	25.6	25.6	75	18.8	2	6	270	0.00	30.155 
23:40	25.6	25.6	25.6	75	18.8	3	7	270	0.00	30.155 
23:45	25.4	25.4	25.4	75	18.6	2	6	248	0.00	30.158 
23:50	25.1	25.1	25.1	75	18.3	2	4	248	0.00	30.158 
23:55	25.0	25.0	25.0	76	18.5	2	6	248	0.00	30.158 

CoCoRaHS
IN-AL-39
A2 Web Hosting
Creative Commons License
GoDaddy
Look for:

loaded 2017-12-11 11:52:21 • last modified 2010-11-18 10:43:29
Privacy PolicyDisclaimer
• wx.awcolley.com is powered by PmWiki v.2002016 •
• all content (unless otherwise noted) © 2017 A W Colley